createdAt,value
2023-05-20T00:00:29.344Z,101318.52
2023-05-20T00:05:50.706Z,101317.87
2023-05-20T00:10:53.361Z,101318.00
2023-05-20T00:15:56.051Z,101321.33
2023-05-20T00:20:58.877Z,101315.67
2023-05-20T00:26:01.926Z,101314.23
2023-05-20T00:31:04.887Z,101315.77
2023-05-20T00:36:07.615Z,101314.05
2023-05-20T00:41:10.249Z,101307.74
2023-05-20T00:46:13.370Z,101308.95
2023-05-20T00:51:16.341Z,101306.36
2023-05-20T00:56:19.021Z,101302.69
2023-05-20T01:01:21.820Z,101301.15
2023-05-20T01:06:24.459Z,101298.21
2023-05-20T01:11:35.851Z,101296.59
2023-05-20T01:16:39.326Z,101291.90
2023-05-20T01:21:43.532Z,101293.30
2023-05-20T01:26:48.427Z,101292.76
2023-05-20T01:31:53.691Z,101289.58
2023-05-20T01:36:57.116Z,101288.71
2023-05-20T01:42:02.145Z,101288.56
2023-05-20T01:47:04.869Z,101290.67
2023-05-20T01:52:07.706Z,101296.27
2023-05-20T01:57:10.340Z,101301.64
2023-05-20T02:02:13.965Z,101300.64
2023-05-20T02:07:18.739Z,101294.64
2023-05-20T02:12:21.374Z,101297.80
2023-05-20T02:17:23.977Z,101301.70
2023-05-20T02:22:26.630Z,101302.06
2023-05-20T02:27:29.292Z,101303.84
2023-05-20T02:32:33.625Z,101300.70
2023-05-20T02:37:36.249Z,101297.23
2023-05-20T02:42:38.791Z,101294.61
2023-05-20T02:47:41.326Z,101288.21
2023-05-20T02:52:45.580Z,101282.56
2023-05-20T02:57:48.180Z,101281.61
2023-05-20T03:02:50.816Z,101285.23
2023-05-20T03:07:53.439Z,101279.84
2023-05-20T03:12:56.031Z,101284.34
2023-05-20T03:17:58.750Z,101284.45
2023-05-20T03:23:02.078Z,101288.02
2023-05-20T03:28:06.567Z,101288.05
2023-05-20T03:33:09.261Z,101293.45
2023-05-20T03:38:11.845Z,101299.80
2023-05-20T03:43:14.444Z,101301.40
2023-05-20T03:48:17.002Z,101296.77
2023-05-20T03:53:20.822Z,101303.64
2023-05-20T03:58:23.436Z,101308.25
2023-05-20T04:03:26.114Z,101306.26
2023-05-20T04:08:28.977Z,101308.38
2023-05-20T04:13:31.767Z,101310.13
2023-05-20T04:18:39.016Z,101309.12
2023-05-20T04:23:41.805Z,101303.83
2023-05-20T04:28:44.405Z,101302.77
2023-05-20T04:33:47.104Z,101300.18
2023-05-20T04:38:49.704Z,101299.80
2023-05-20T04:43:52.270Z,101297.05
2023-05-20T04:48:54.880Z,101293.65
2023-05-20T04:53:59.060Z,101297.60
2023-05-20T04:59:01.967Z,101299.73
2023-05-20T05:04:04.683Z,101295.94
2023-05-20T05:09:08.038Z,101300.70
2023-05-20T05:14:10.622Z,101304.11
2023-05-20T05:19:13.715Z,101303.34
2023-05-20T05:24:16.567Z,101304.12
2023-05-20T05:29:19.158Z,101294.89
2023-05-20T05:34:21.791Z,101291.86
2023-05-20T05:39:24.361Z,101294.23
2023-05-20T05:44:26.909Z,101294.60
2023-05-20T05:49:29.510Z,101293.27
2023-05-20T05:54:32.135Z,101297.10
2023-05-20T05:59:34.713Z,101295.70
2023-05-20T06:04:37.325Z,101296.83
2023-05-20T06:09:40.021Z,101295.80
2023-05-20T06:14:42.750Z,101305.05
2023-05-20T06:19:45.477Z,101305.39
2023-05-20T06:24:48.134Z,101304.58
2023-05-20T06:29:50.859Z,101299.84
2023-05-20T06:34:53.462Z,101297.34
2023-05-20T06:39:56.198Z,101296.56
2023-05-20T06:44:58.733Z,101297.09
2023-05-20T06:50:01.287Z,101299.34
2023-05-20T06:55:04.677Z,101300.65
2023-05-20T07:00:07.995Z,101297.08
2023-05-20T07:05:10.775Z,101292.23
2023-05-20T07:10:13.375Z,101294.41
2023-05-20T07:15:16.142Z,101291.10
2023-05-20T07:20:19.036Z,101294.17
2023-05-20T07:25:21.735Z,101297.86
2023-05-20T07:30:24.449Z,101295.89
2023-05-20T07:35:27.212Z,101292.61
2023-05-20T07:40:29.862Z,101292.95
2023-05-20T07:45:32.786Z,101293.95
2023-05-20T07:50:36.004Z,101290.88
2023-05-20T07:55:38.628Z,101289.10
2023-05-20T08:00:41.488Z,101289.48
2023-05-20T08:05:44.208Z,101289.33
2023-05-20T08:10:46.783Z,101288.75
2023-05-20T08:15:49.444Z,101281.11
2023-05-20T08:20:53.257Z,101281.80
2023-05-20T08:25:57.434Z,101276.58
2023-05-20T08:31:01.784Z,101275.33
2023-05-20T08:36:04.580Z,101273.67
2023-05-20T08:41:07.194Z,101276.04
2023-05-20T08:46:11.565Z,101282.08
2023-05-20T08:51:16.323Z,101280.13
2023-05-20T08:56:19.460Z,101286.30
2023-05-20T09:01:27.782Z,101290.27
2023-05-20T09:06:31.348Z,101290.95
2023-05-20T09:11:33.957Z,101293.21
2023-05-20T09:16:36.589Z,101290.19
2023-05-20T09:21:41.443Z,101284.85
2023-05-20T09:26:43.996Z,101282.94
2023-05-20T09:31:46.689Z,101282.39
2023-05-20T09:36:53.588Z,101274.95
2023-05-20T09:42:10.534Z,101268.60
2023-05-20T09:47:14.007Z,101267.25
2023-05-20T09:52:18.247Z,101269.75
2023-05-20T09:57:22.177Z,101268.30
2023-05-20T10:02:24.961Z,101262.86
2023-05-20T10:07:41.389Z,101260.74
2023-05-20T10:13:09.138Z,101255.39
2023-05-20T10:18:34.356Z,101254.08
2023-05-20T10:23:37.381Z,101246.73
2023-05-20T10:28:41.808Z,101238.63
2023-05-20T10:33:46.140Z,101233.56
2023-05-20T10:38:56.255Z,101236.70
2023-05-20T10:44:03.026Z,101229.02
2023-05-20T10:49:06.016Z,101219.49
2023-05-20T10:54:10.350Z,101217.66
2023-05-20T10:59:13.032Z,101217.02
2023-05-20T11:04:17.402Z,101211.38
2023-05-20T11:09:20.235Z,101211.29
2023-05-20T11:14:23.268Z,101208.13
2023-05-20T11:19:27.385Z,101203.70
2023-05-20T11:24:30.279Z,101191.23
2023-05-20T11:29:33.428Z,101186.98
2023-05-20T11:34:38.006Z,101177.65
2023-05-20T11:39:40.934Z,101170.95
2023-05-20T11:44:48.751Z,101161.48
2023-05-20T11:49:51.495Z,101158.48
2023-05-20T11:54:54.166Z,101165.83
2023-05-20T11:59:56.836Z,101165.17
2023-05-20T12:04:59.521Z,101162.02
2023-05-20T12:10:03.576Z,101162.70
2023-05-20T12:15:07.071Z,101164.03
2023-05-20T12:20:10.259Z,101162.76
2023-05-20T12:25:15.467Z,101156.25
2023-05-20T12:30:20.217Z,101157.13
2023-05-20T12:35:37.261Z,101158.50
2023-05-20T12:40:39.929Z,101152.98
2023-05-20T12:45:42.583Z,101144.39
2023-05-20T12:50:45.670Z,101141.54
2023-05-20T12:55:48.262Z,101141.22
2023-05-20T13:00:51.041Z,101131.85
2023-05-20T13:05:53.710Z,101124.13
2023-05-20T13:10:56.342Z,101114.12
2023-05-20T13:15:58.952Z,101111.13
2023-05-20T13:21:01.619Z,101107.16
2023-05-20T13:26:06.797Z,101106.23
2023-05-20T13:31:09.516Z,101101.93
2023-05-20T13:36:12.955Z,101100.92
2023-05-20T13:41:16.009Z,101087.96
2023-05-20T13:46:18.599Z,101086.55
2023-05-20T13:51:21.570Z,101080.96
2023-05-20T13:56:24.271Z,101073.89
2023-05-20T14:01:28.507Z,101068.61
2023-05-20T14:06:32.037Z,101058.66
2023-05-20T14:11:34.639Z,101055.21
2023-05-20T14:16:37.341Z,101057.82
2023-05-20T14:21:39.958Z,101057.73
2023-05-20T14:26:42.605Z,101053.93
2023-05-20T14:31:45.291Z,101050.22
2023-05-20T14:36:48.137Z,101048.27
2023-05-20T14:41:50.732Z,101044.09
2023-05-20T14:46:53.369Z,101044.30
2023-05-20T14:51:56.127Z,101039.07
2023-05-20T14:56:58.697Z,101032.58
2023-05-20T15:02:01.921Z,101034.98
2023-05-20T15:07:05.672Z,101032.09
2023-05-20T15:12:09.699Z,101032.65
2023-05-20T15:17:12.447Z,101025.23
2023-05-20T15:22:15.077Z,101022.98
2023-05-20T15:27:17.700Z,101012.80
2023-05-20T15:32:20.786Z,101008.05
2023-05-20T15:37:23.448Z,101003.96
2023-05-20T15:42:26.044Z,100997.57
2023-05-20T15:47:28.674Z,100995.82
2023-05-20T15:52:31.345Z,100991.04
2023-05-20T15:57:34.023Z,100993.52
2023-05-20T16:02:37.053Z,100991.97
2023-05-20T16:07:39.878Z,100994.83
2023-05-20T16:12:42.495Z,100993.24
2023-05-20T16:17:45.220Z,100990.14
2023-05-20T16:22:47.845Z,100982.30
2023-05-20T16:27:50.465Z,100976.39
2023-05-20T16:32:53.112Z,100974.38
2023-05-20T16:37:56.129Z,100968.31
2023-05-20T16:42:58.691Z,100969.49
2023-05-20T16:48:01.345Z,100971.12
2023-05-20T16:53:03.986Z,100967.75
2023-05-20T16:58:06.655Z,100965.98
2023-05-20T17:03:09.322Z,100969.56
2023-05-20T17:08:12.094Z,100969.67
2023-05-20T17:13:14.636Z,100967.27
2023-05-20T17:18:17.292Z,100974.04
2023-05-20T17:23:19.882Z,100980.73
2023-05-20T17:28:22.469Z,100980.39
2023-05-20T17:33:25.105Z,100980.91
2023-05-20T17:38:27.915Z,100979.42
2023-05-20T17:43:30.684Z,100978.79
2023-05-20T17:48:33.419Z,100980.23
2023-05-20T17:53:36.192Z,100978.61
2023-05-20T17:58:39.301Z,100980.21
2023-05-20T18:03:42.147Z,100978.98
2023-05-20T18:08:45.112Z,100971.17
2023-05-20T18:13:47.792Z,100968.48
2023-05-20T18:18:50.426Z,100972.88
2023-05-20T18:23:53.221Z,100974.43
2023-05-20T18:28:55.974Z,100971.62
2023-05-20T18:33:58.662Z,100971.81
2023-05-20T18:39:01.389Z,100972.77
2023-05-20T18:44:05.779Z,100975.32
2023-05-20T18:49:12.253Z,100975.13
2023-05-20T18:54:16.204Z,100976.47
2023-05-20T18:59:19.478Z,100982.11
2023-05-20T19:04:22.150Z,100982.98
2023-05-20T19:09:24.838Z,100984.92
2023-05-20T19:14:27.512Z,100988.05
2023-05-20T19:19:30.235Z,100985.34
2023-05-20T19:24:34.169Z,100978.44
2023-05-20T19:29:37.400Z,100972.81
2023-05-20T19:34:40.899Z,100974.27
2023-05-20T19:39:43.676Z,100981.44
2023-05-20T19:44:46.679Z,100977.05
2023-05-20T19:49:49.584Z,100981.11
2023-05-20T19:54:52.275Z,100980.42
2023-05-20T19:59:54.924Z,100974.16
2023-05-20T20:04:59.110Z,100976.16
2023-05-20T20:10:01.986Z,100978.81
2023-05-20T20:15:05.385Z,100978.09
2023-05-20T20:20:10.584Z,100981.34
2023-05-20T20:25:16.641Z,100981.27
2023-05-20T20:30:21.504Z,100983.66
2023-05-20T20:35:24.349Z,100983.67
2023-05-20T20:40:28.424Z,100982.89
2023-05-20T20:45:30.949Z,100984.89
2023-05-20T20:50:34.581Z,100982.52
2023-05-20T20:55:37.390Z,100988.27
2023-05-20T21:00:40.280Z,100992.06
2023-05-20T21:05:42.900Z,100988.33
2023-05-20T21:10:45.745Z,100991.30
2023-05-20T21:15:48.312Z,100994.45
2023-05-20T21:20:54.885Z,100998.52
2023-05-20T21:25:57.519Z,101001.31
2023-05-20T21:31:00.151Z,101004.70
2023-05-20T21:36:03.862Z,101004.14
2023-05-20T21:41:07.991Z,101002.17
2023-05-20T21:46:11.593Z,100999.80
2023-05-20T21:51:14.377Z,100997.16
2023-05-20T21:56:17.079Z,100990.34
2023-05-20T22:01:19.678Z,100992.04
2023-05-20T22:06:22.500Z,100988.25
2023-05-20T22:11:26.267Z,100992.70
2023-05-20T22:16:29.044Z,100992.40
2023-05-20T22:21:34.278Z,100991.27
2023-05-20T22:26:42.460Z,100993.52
2023-05-20T22:31:45.239Z,100990.45
2023-05-20T22:36:49.123Z,100991.27
2023-05-20T22:41:51.824Z,100987.82
2023-05-20T22:46:54.463Z,100987.11
2023-05-20T22:51:59.222Z,100985.13
2023-05-20T22:57:02.223Z,100986.58
2023-05-20T23:02:04.793Z,100985.58
2023-05-20T23:07:07.412Z,100986.19
2023-05-20T23:12:10.037Z,100987.88
2023-05-20T23:17:12.767Z,100987.43
2023-05-20T23:22:16.350Z,100992.30
2023-05-20T23:27:19.029Z,100987.55
2023-05-20T23:32:21.707Z,100990.91
2023-05-20T23:37:24.294Z,100990.20
2023-05-20T23:42:27.811Z,100989.98
2023-05-20T23:47:30.630Z,100993.98
2023-05-20T23:52:33.327Z,100996.92
2023-05-20T23:57:36.157Z,100999.27
